Time;durP1;ratioP1;P1;durP2;ratioP2;P2;SDS_P1;SDS_P2;PMS_P1;PMS_P2;Temp;Humidity;BMP_temperature;BMP_pressure;BME280_temperature;BME280_humidity;BME280_pressure;Samples;Min_cycle;Max_cycle;Signal;HPM_P1;HPM_P2
2024/01/08 00:01:35;;;;;;;10.23;6.50;;;;;;;-1.79;80.08;102899.88;5092055;28;20169;-59
2024/01/08 00:04:01;;;;;;;8.97;7.10;;;;;;;-1.87;79.37;102891.88;5091187;28;20483;-59
2024/01/08 00:06:26;;;;;;;7.40;6.60;;;;;;;-1.91;80.23;102891.78;5092306;28;20020;-59
2024/01/08 00:08:55;;;;;;;9.73;7.63;;;;;;;-1.88;79.11;102899.69;5092066;28;20028;-59
2024/01/08 00:11:20;;;;;;;7.53;6.40;;;;;;;-1.88;79.95;102897.09;5091759;28;20032;-59
2024/01/08 00:13:48;;;;;;;9.53;6.57;;;;;;;-1.91;80.35;102897.00;5092259;28;21630;-59
2024/01/08 00:16:13;;;;;;;7.90;6.80;;;;;;;-1.86;79.62;102903.19;5091892;28;20039;-59
2024/01/08 00:18:39;;;;;;;6.90;6.30;;;;;;;-1.95;79.56;102882.13;5092375;28;20020;-59
2024/01/08 00:21:04;;;;;;;7.70;6.53;;;;;;;-1.83;80.21;102909.34;5090092;28;20062;-59
2024/01/08 00:23:33;;;;;;;8.70;7.23;;;;;;;-1.76;80.42;102901.69;5091993;28;21558;-59
2024/01/08 00:25:58;;;;;;;7.77;6.97;;;;;;;-1.80;80.41;102892.00;5091033;28;20032;-59
2024/01/08 00:28:25;;;;;;;8.67;7.17;;;;;;;-1.70;79.78;102910.50;5090588;28;20383;-59
2024/01/08 00:30:53;;;;;;;11.37;8.07;;;;;;;-1.77;80.30;102892.94;5091673;28;20028;-59
2024/01/08 00:33:18;;;;;;;11.97;8.00;;;;;;;-1.70;78.06;102901.81;5090307;28;20043;-59
2024/01/08 00:35:44;;;;;;;14.17;10.17;;;;;;;-1.71;78.90;102906.13;5091063;28;20032;-59
2024/01/08 00:38:09;;;;;;;12.63;9.17;;;;;;;-1.70;78.37;102909.63;5091534;28;20088;-59
2024/01/08 00:40:35;;;;;;;11.23;8.07;;;;;;;-1.77;78.54;102913.81;5089877;28;20078;-59
2024/01/08 00:43:00;;;;;;;18.17;10.33;;;;;;;-1.80;78.47;102908.53;5091395;28;20082;-59
2024/01/08 00:45:26;;;;;;;17.07;11.17;;;;;;;-1.75;78.43;102912.13;5073133;28;20028;-59
2024/01/08 00:47:53;;;;;;;14.60;9.80;;;;;;;-1.72;78.17;102919.13;5089785;28;20390;-59
2024/01/08 00:50:19;;;;;;;13.03;9.47;;;;;;;-1.75;78.57;102912.13;5090807;28;20032;-59
2024/01/08 00:52:44;;;;;;;14.53;10.43;;;;;;;-1.83;78.99;102900.66;5091216;28;20028;-59
2024/01/08 00:55:11;;;;;;;17.87;9.43;;;;;;;-1.80;79.51;102908.53;5091095;28;20097;-59
2024/01/08 00:57:38;;;;;;;14.37;10.37;;;;;;;-1.75;79.78;102906.03;5088326;28;20023;-59
2024/01/08 01:00:05;;;;;;;17.00;11.33;;;;;;;-1.71;79.76;102905.25;5091097;28;20024;-59
2024/01/08 01:02:30;;;;;;;16.43;10.37;;;;;;;-1.73;78.83;102902.63;5089757;28;20028;-59
2024/01/08 01:04:56;;;;;;;18.80;11.33;;;;;;;-1.72;79.81;102906.09;5090147;28;20491;-59
2024/01/08 01:07:21;;;;;;;21.47;13.47;;;;;;;-1.72;79.94;102911.31;5089975;28;20026;-59
2024/01/08 01:09:47;;;;;;;24.00;13.67;;;;;;;-1.72;79.32;102904.38;5090507;28;20467;-59
2024/01/08 01:12:12;;;;;;;25.33;15.50;;;;;;;-1.72;78.95;102903.50;5090978;28;20479;-59
2024/01/08 01:14:37;;;;;;;29.40;15.73;;;;;;;-1.78;79.02;102911.19;5089766;28;20042;-59
2024/01/08 01:17:03;;;;;;;28.17;15.60;;;;;;;-1.79;78.88;102909.41;5090663;28;20160;-59
2024/01/08 01:19:28;;;;;;;26.87;15.30;;;;;;;-1.77;79.21;102910.34;5089306;28;20061;-59
2024/01/08 01:21:54;;;;;;;25.43;15.10;;;;;;;-1.83;79.63;102906.72;5089851;28;20466;-59
2024/01/08 01:24:19;;;;;;;28.00;16.33;;;;;;;-1.69;79.57;102908.78;5090944;28;20032;-59
2024/01/08 01:26:45;;;;;;;30.33;16.83;;;;;;;-1.71;79.96;102913.06;5088677;28;20028;-59
2024/01/08 01:29:10;;;;;;;29.23;15.20;;;;;;;-1.71;79.94;102906.13;5088463;28;20047;-59
2024/01/08 01:31:36;;;;;;;25.33;15.03;;;;;;;-1.69;80.31;102920.09;5089800;28;20081;-59
2024/01/08 01:34:01;;;;;;;26.03;15.30;;;;;;;-1.80;78.68;102899.84;5088436;28;20501;-59
2024/01/08 01:36:29;;;;;;;26.67;14.37;;;;;;;-1.75;79.48;102906.03;5088880;28;20431;-59
2024/01/08 01:38:55;;;;;;;22.13;13.20;;;;;;;-1.71;78.97;102908.72;5090239;28;20505;-59
2024/01/08 01:41:20;;;;;;;19.63;12.70;;;;;;;-1.72;79.15;102903.50;5088409;28;20024;-59
2024/01/08 01:43:46;;;;;;;13.90;9.60;;;;;;;-1.73;79.03;102904.34;5089697;28;20024;-59
2024/01/08 01:46:25;;;;;;;13.97;10.37;;;;;;;-1.71;78.02;102905.25;5088273;28;20035;-60
2024/01/08 01:48:51;;;;;;;15.75;10.20;;;;;;;-1.76;76.42;102897.34;5089598;28;20036;-59
2024/01/08 01:51:16;;;;;;;12.27;9.20;;;;;;;-1.77;76.93;102908.59;5088314;28;20125;-60
2024/01/08 01:53:42;;;;;;;11.63;8.93;;;;;;;-1.78;75.73;102914.69;5089821;28;20024;-59
2024/01/08 01:56:08;;;;;;;10.47;8.57;;;;;;;-1.76;76.25;102913.00;5087988;28;20065;-59
2024/01/08 01:58:34;;;;;;;11.47;9.00;;;;;;;-1.74;75.55;102910.41;5088306;28;20020;-59
2024/01/08 02:01:00;;;;;;;13.20;8.57;;;;;;;-1.73;75.70;102918.25;5091465;28;20016;-59
2024/01/08 02:03:26;;;;;;;12.00;8.77;;;;;;;-1.69;76.69;102914.88;5089673;28;20098;-59
2024/01/08 02:05:53;;;;;;;13.83;8.93;;;;;;;-1.67;76.82;102915.78;5090181;28;20028;-59
2024/01/08 02:08:20;;;;;;;16.03;9.83;;;;;;;-1.65;76.83;102919.31;5091070;28;20028;-59
2024/01/08 02:10:46;;;;;;;13.07;9.13;;;;;;;-1.67;76.47;102918.41;5092682;28;20024;-59
2024/01/08 02:13:14;;;;;;;11.50;8.97;;;;;;;-1.65;76.67;102926.22;5094122;28;20032;-61
2024/01/08 02:15:40;;;;;;;13.77;9.40;;;;;;;-1.66;75.90;102927.97;5094063;28;20471;-59
2024/01/08 02:18:06;;;;;;;11.30;7.90;;;;;;;-1.63;76.91;102924.53;5093934;28;20035;-59
2024/01/08 02:20:33;;;;;;;15.50;9.33;;;;;;;-1.60;77.30;102924.63;5092590;28;20024;-59
2024/01/08 02:22:59;;;;;;;8.23;7.43;;;;;;;-1.61;76.17;102920.25;5093409;28;20023;-59
2024/01/08 02:25:30;;;;;;;10.00;7.93;;;;;;;-1.62;76.78;102921.06;5093659;28;20062;-59
2024/01/08 02:27:56;;;;;;;9.50;8.33;;;;;;;-1.61;78.00;102928.94;5093280;28;20036;-59
2024/01/08 02:30:21;;;;;;;10.70;8.03;;;;;;;-1.62;77.63;102926.28;5074535;28;20517;-59
2024/01/08 02:32:47;;;;;;;7.73;6.97;;;;;;;-1.69;76.44;102935.72;5091498;28;20043;-60
2024/01/08 02:35:12;;;;;;;7.70;6.47;;;;;;;-1.73;76.34;102935.66;5093138;28;20039;-59
2024/01/08 02:37:40;;;;;;;7.33;6.63;;;;;;;-1.80;77.17;102938.97;5093916;28;20024;-59
2024/01/08 02:40:06;;;;;;;9.53;6.60;;;;;;;-1.88;78.45;102933.59;5093499;28;20020;-59
2024/01/08 02:42:31;;;;;;;9.47;7.60;;;;;;;-1.90;78.38;102930.06;5093383;28;20057;-59
2024/01/08 02:44:57;;;;;;;8.50;7.10;;;;;;;-1.90;78.49;102937.88;5093402;28;20024;-59
2024/01/08 02:47:22;;;;;;;9.10;7.03;;;;;;;-1.95;77.93;102942.97;5093027;28;20455;-59
2024/01/08 02:49:48;;;;;;;7.23;6.63;;;;;;;-2.01;77.96;102942.84;5093425;28;20024;-59
2024/01/08 02:52:13;;;;;;;6.90;6.23;;;;;;;-2.11;77.70;102951.31;5092982;28;20559;-59
2024/01/08 02:54:38;;;;;;;7.87;7.07;;;;;;;-2.17;77.83;102949.44;5092857;28;20032;-59
2024/01/08 02:57:04;;;;;;;9.67;6.83;;;;;;;-2.19;78.74;102943.31;5093856;28;20395;-59
2024/01/08 02:59:29;;;;;;;7.90;7.10;;;;;;;-2.19;79.14;102950.25;5092706;28;20065;-59
2024/01/08 03:01:55;;;;;;;7.53;6.80;;;;;;;-2.19;79.50;102953.72;5092606;28;20368;-59
2024/01/08 03:04:20;;;;;;;7.23;6.10;;;;;;;-2.25;78.83;102950.97;5093044;28;20414;-59
2024/01/08 03:06:45;;;;;;;7.63;6.77;;;;;;;-2.24;79.32;102950.13;5093002;28;20501;-59
2024/01/08 03:09:11;;;;;;;11.20;7.03;;;;;;;-2.32;79.26;102955.16;5093356;28;20039;-59
2024/01/08 03:11:36;;;;;;;6.90;6.20;;;;;;;-2.30;78.71;102948.25;5091522;28;20379;-59
2024/01/08 03:14:02;;;;;;;7.40;6.67;;;;;;;-2.40;79.10;102934.97;5092383;28;20030;-59
2024/01/08 03:16:27;;;;;;;7.90;6.93;;;;;;;-2.39;78.76;102941.94;5092251;28;20035;-59
2024/01/08 03:18:55;;;;;;;6.57;5.87;;;;;;;-2.38;79.48;102942.00;5092515;28;20387;-59
2024/01/08 03:21:20;;;;;;;7.80;6.30;;;;;;;-2.34;80.19;102942.94;5091583;28;20503;-59
2024/01/08 03:23:45;;;;;;;7.47;6.67;;;;;;;-2.36;80.43;102950.72;5092545;28;20055;-59
2024/01/08 03:26:11;;;;;;;7.43;6.73;;;;;;;-2.36;80.37;102948.09;5091745;28;20035;-59
2024/01/08 03:28:36;;;;;;;7.17;6.47;;;;;;;-2.42;79.53;102949.69;5091921;28;20031;-59
2024/01/08 03:31:02;;;;;;;8.17;6.50;;;;;;;-2.46;79.77;102947.88;5090557;28;20036;-59
2024/01/08 03:33:28;;;;;;;12.47;6.63;;;;;;;-2.44;80.50;102954.88;5092367;28;20138;-59
2024/01/08 03:35:55;;;;;;;8.47;5.87;;;;;;;-2.42;80.88;102934.94;5091940;28;20092;-59
2024/01/08 03:38:20;;;;;;;9.23;6.87;;;;;;;-2.38;80.39;102947.22;5090964;28;20107;-59
2024/01/08 03:40:45;;;;;;;8.97;7.00;;;;;;;-2.31;80.50;102950.84;5091927;28;20016;-59
2024/01/08 03:43:13;;;;;;;8.30;6.43;;;;;;;-2.27;80.55;102952.66;5090777;28;20114;-59
2024/01/08 03:45:39;;;;;;;7.57;6.27;;;;;;;-2.31;80.70;102946.50;5090949;28;20035;-59
2024/01/08 03:48:04;;;;;;;7.87;6.73;;;;;;;-2.24;81.16;102957.06;5091855;28;20463;-59
2024/01/08 03:50:30;;;;;;;8.23;6.93;;;;;;;-2.24;81.28;102955.34;5092053;28;20108;-59
2024/01/08 03:52:55;;;;;;;8.17;6.80;;;;;;;-2.18;81.27;102960.69;5092146;28;20020;-60
2024/01/08 03:55:23;;;;;;;9.47;6.60;;;;;;;-2.20;81.86;102951.09;5091137;28;20031;-59
2024/01/08 03:57:48;;;;;;;7.10;6.40;;;;;;;-2.22;82.01;102951.06;5091445;28;20457;-59
2024/01/08 04:00:14;;;;;;;8.07;6.70;;;;;;;-2.25;81.39;102953.59;5088984;28;20023;-59
2024/01/08 04:02:42;;;;;;;8.77;7.20;;;;;;;-2.24;81.53;102951.84;5092667;28;20020;-59
2024/01/08 04:05:11;;;;;;;9.70;7.70;;;;;;;-2.26;81.50;102958.75;5092785;28;20107;-59
2024/01/08 04:07:36;;;;;;;10.23;7.00;;;;;;;-2.31;82.35;102956.03;5091197;28;20027;-59
2024/01/08 04:10:02;;;;;;;7.23;6.53;;;;;;;-2.35;82.22;102957.72;5091699;28;20016;-59
2024/01/08 04:12:30;;;;;;;8.40;6.57;;;;;;;-2.31;82.12;102961.25;5091791;28;20051;-59
2024/01/08 04:14:55;;;;;;;7.67;6.50;;;;;;;-2.32;82.35;102949.09;5091367;28;20115;-59
2024/01/08 04:17:20;;;;;;;9.97;7.50;;;;;;;-2.21;82.33;102957.13;5091733;28;20077;-59
2024/01/08 04:19:46;;;;;;;9.43;7.03;;;;;;;-2.20;82.39;102953.72;5090472;28;20107;-59
2024/01/08 04:22:11;;;;;;;9.37;7.10;;;;;;;-2.23;83.10;102954.50;5089722;28;20024;-59
2024/01/08 04:24:36;;;;;;;9.03;7.57;;;;;;;-2.27;82.13;102942.22;5090073;28;20023;-59
2024/01/08 04:27:02;;;;;;;9.27;7.77;;;;;;;-2.18;82.95;102959.81;5089549;28;20084;-59
2024/01/08 04:29:27;;;;;;;9.17;6.80;;;;;;;-2.29;82.71;102941.34;5091537;28;20056;-59
2024/01/08 04:31:53;;;;;;;10.57;7.53;;;;;;;-2.31;82.80;102936.06;5090774;28;20040;-59
2024/01/08 04:34:18;;;;;;;10.50;7.33;;;;;;;-2.19;82.54;102956.34;5090880;28;20085;-59
2024/01/08 04:36:44;;;;;;;8.23;6.80;;;;;;;-2.19;82.07;102952.84;5091051;28;20098;-59
2024/01/08 04:39:09;;;;;;;7.33;6.43;;;;;;;-2.18;82.43;102954.59;5090222;28;20368;-59
2024/01/08 04:41:35;;;;;;;8.97;7.00;;;;;;;-2.28;82.58;102946.56;5087721;28;20055;-59
2024/01/08 04:44:00;;;;;;;7.50;6.47;;;;;;;-2.22;82.36;102951.06;5089883;28;20492;-59
2024/01/08 04:46:26;;;;;;;9.20;6.60;;;;;;;-2.29;82.88;102938.72;5091116;28;20020;-60
2024/01/08 04:48:51;;;;;;;7.20;6.50;;;;;;;-2.16;82.63;102948.59;5089287;28;20075;-59
2024/01/08 04:51:24;;;;;;;7.07;6.03;;;;;;;-2.17;83.18;102941.63;5089682;28;20016;-60
2024/01/08 04:53:50;;;;;;;9.20;7.00;;;;;;;-2.17;82.27;102954.66;5091325;28;20035;-59
2024/01/08 04:56:25;;;;;;;7.13;6.37;;;;;;;-2.29;82.43;102941.34;5088583;28;20028;-59
2024/01/08 04:58:54;;;;;;;8.37;6.77;;;;;;;-2.30;82.23;102940.44;5089562;28;20015;-59
2024/01/08 05:01:20;;;;;;;9.13;8.03;;;;;;;-2.23;82.25;102951.91;5090660;28;20032;-59
2024/01/08 05:03:46;;;;;;;8.73;6.57;;;;;;;-2.20;82.23;102956.31;5090081;28;20051;-59
2024/01/08 05:06:12;;;;;;;8.13;6.57;;;;;;;-2.20;82.20;102958.91;5090313;28;20024;-60
2024/01/08 05:08:40;;;;;;;7.53;6.73;;;;;;;-2.19;82.42;102953.72;5090761;28;20133;-59
2024/01/08 05:11:06;;;;;;;7.77;6.70;;;;;;;-2.22;82.58;102953.66;5089136;28;20036;-59
2024/01/08 05:13:32;;;;;;;8.57;6.47;;;;;;;-2.24;82.46;102946.66;5090763;28;20034;-60
2024/01/08 05:15:58;;;;;;;7.27;6.57;;;;;;;-2.23;83.11;102940.59;5091025;28;20020;-59
2024/01/08 05:18:23;;;;;;;11.37;6.80;;;;;;;-2.14;83.36;102946.03;5089421;28;20034;-59
2024/01/08 05:20:49;;;;;;;8.43;6.37;;;;;;;-2.14;82.87;102948.63;5090811;28;20077;-59
2024/01/08 05:23:14;;;;;;;8.27;7.10;;;;;;;-2.16;82.89;102948.59;5090578;28;20024;-59
2024/01/08 05:25:39;;;;;;;8.27;7.33;;;;;;;-2.14;84.15;102952.13;5089006;28;20150;-59
2024/01/08 05:28:06;;;;;;;9.20;6.80;;;;;;;-2.08;83.70;102948.78;5090461;28;20020;-59
2024/01/08 05:30:31;;;;;;;12.00;7.23;;;;;;;-2.07;84.36;102950.53;5090499;28;20042;-59
2024/01/08 05:32:57;;;;;;;9.90;7.83;;;;;;;-2.05;84.62;102954.06;5089915;28;20048;-59
2024/01/08 05:35:22;;;;;;;14.03;8.53;;;;;;;-2.03;84.70;102954.06;5088899;28;20075;-59
2024/01/08 05:37:47;;;;;;;10.87;8.27;;;;;;;-2.04;84.88;102939.28;5090261;28;20071;-59
2024/01/08 05:40:13;;;;;;;8.33;6.97;;;;;;;-2.04;84.70;102948.00;5088125;28;20096;-60
2024/01/08 05:42:39;;;;;;;12.53;7.77;;;;;;;-2.01;85.11;102952.41;5088622;28;20471;-59
2024/01/08 05:45:07;;;;;;;9.07;7.10;;;;;;;-2.05;85.31;102948.84;5088345;28;20099;-59
2024/01/08 05:47:34;;;;;;;12.83;7.57;;;;;;;-2.07;85.14;102943.59;5090101;28;20099;-59
2024/01/08 05:50:00;;;;;;;7.27;6.57;;;;;;;-2.10;85.08;102945.25;5090397;28;20024;-59
2024/01/08 05:52:26;;;;;;;9.43;7.83;;;;;;;-2.16;86.10;102926.84;5088838;28;20028;-59
2024/01/08 05:54:51;;;;;;;11.70;7.53;;;;;;;-2.04;86.50;102941.91;5089442;28;20035;-59
2024/01/08 05:57:19;;;;;;;9.97;7.03;;;;;;;-1.99;86.71;102946.38;5088807;28;20027;-59
2024/01/08 05:59:44;;;;;;;9.83;7.53;;;;;;;-2.04;86.43;102923.66;5090493;28;20108;-59
2024/01/08 06:02:10;;;;;;;7.40;6.37;;;;;;;-1.97;85.84;102944.69;5088899;28;20119;-59
2024/01/08 06:04:35;;;;;;;12.17;8.00;;;;;;;-1.97;86.71;102943.78;5089106;28;20555;-59
2024/01/08 06:07:01;;;;;;;8.87;7.10;;;;;;;-2.06;86.28;102924.50;5090057;28;20036;-59
2024/01/08 06:09:26;;;;;;;9.30;7.60;;;;;;;-2.01;86.74;102939.38;5089924;28;20382;-59
2024/01/08 06:11:51;;;;;;;11.07;8.63;;;;;;;-1.99;86.69;102951.59;5090069;28;20059;-59
2024/01/08 06:14:17;;;;;;;11.73;8.43;;;;;;;-2.01;86.17;102947.19;5090088;28;20028;-59
2024/01/08 06:16:42;;;;;;;9.90;7.53;;;;;;;-2.03;86.47;102944.53;5089845;28;20028;-59
2024/01/08 06:19:07;;;;;;;9.13;7.57;;;;;;;-2.02;87.30;102940.22;5090385;28;20072;-59
2024/01/08 06:21:33;;;;;;;10.87;8.30;;;;;;;-2.01;87.88;102937.63;5089847;28;20028;-59
2024/01/08 06:23:58;;;;;;;11.43;9.40;;;;;;;-1.98;87.69;102942.91;5089817;28;20118;-59
2024/01/08 06:26:26;;;;;;;12.33;8.00;;;;;;;-2.02;88.18;102928.06;5089145;28;20035;-59
2024/01/08 06:28:52;;;;;;;9.43;7.97;;;;;;;-1.99;88.19;102930.72;5087015;28;20028;-59
2024/01/08 06:31:18;;;;;;;12.53;8.80;;;;;;;-1.94;88.17;102936.03;5089631;28;20182;-59
2024/01/08 06:33:43;;;;;;;13.37;8.90;;;;;;;-1.92;88.36;102936.97;5089848;28;20473;-59
2024/01/08 06:36:09;;;;;;;12.00;8.27;;;;;;;-1.94;88.49;102930.81;5089272;28;20785;-59
2024/01/08 06:38:35;;;;;;;8.83;7.60;;;;;;;-1.89;87.95;102935.28;5088986;28;20103;-59
2024/01/08 06:41:05;;;;;;;12.37;8.23;;;;;;;-1.93;88.37;102924.78;5088624;28;20122;-59
2024/01/08 06:43:30;;;;;;;11.98;9.13;;;;;;;-1.85;89.16;102939.75;5089817;28;20024;-59
2024/01/08 06:45:56;;;;;;;13.10;8.87;;;;;;;-1.94;88.64;102923.91;5089401;28;20444;-59
2024/01/08 06:48:21;;;;;;;9.67;8.63;;;;;;;-1.87;89.08;102933.59;5089067;28;20416;-59
2024/01/08 06:50:47;;;;;;;10.80;8.90;;;;;;;-1.85;88.66;102941.47;5088333;28;20442;-59
2024/01/08 06:53:12;;;;;;;13.30;8.73;;;;;;;-1.85;88.99;102938.88;5088816;28;20020;-59
2024/01/08 06:55:38;;;;;;;10.43;7.80;;;;;;;-1.92;88.77;102921.31;5091940;28;20489;-59
2024/01/08 06:58:03;;;;;;;11.70;8.30;;;;;;;-1.90;89.34;102927.44;5093005;28;20016;-59
2024/01/08 07:00:29;;;;;;;11.87;7.97;;;;;;;-1.92;89.42;102916.97;5092982;28;20028;-59
2024/01/08 07:02:55;;;;;;;11.50;7.37;;;;;;;-1.78;90.01;102939.88;5091841;28;20027;-59
2024/01/08 07:05:20;;;;;;;14.67;8.27;;;;;;;-1.77;89.85;102942.50;5091869;28;20423;-59
2024/01/08 07:07:46;;;;;;;14.43;7.70;;;;;;;-1.81;89.28;102925.03;5090954;28;20161;-59
2024/01/08 07:10:11;;;;;;;10.97;8.13;;;;;;;-1.72;89.08;102942.63;5091020;28;20023;-59
2024/01/08 07:12:37;;;;;;;26.10;10.33;;;;;;;-1.69;89.89;102940.06;5093596;28;20098;-59
2024/01/08 07:15:04;;;;;;;12.53;9.23;;;;;;;-1.70;89.25;102943.53;5093118;28;20102;-59
2024/01/08 07:17:29;;;;;;;10.47;8.37;;;;;;;-1.71;89.28;102947.84;5093507;28;20028;-59
2024/01/08 07:19:55;;;;;;;13.57;8.80;;;;;;;-1.69;89.18;102946.16;5090786;28;20024;-59
2024/01/08 07:22:20;;;;;;;11.20;8.47;;;;;;;-1.71;88.96;102950.47;5091767;28;20028;-60
2024/01/08 07:24:46;;;;;;;11.40;8.27;;;;;;;-1.70;89.43;102948.75;5092198;28;20490;-59
2024/01/08 07:27:11;;;;;;;12.10;8.00;;;;;;;-1.68;89.47;102954.88;5091083;28;20109;-59
2024/01/08 07:29:36;;;;;;;14.20;9.43;;;;;;;-1.74;89.23;102944.31;5092188;28;20028;-59
2024/01/08 07:32:02;;;;;;;12.07;8.90;;;;;;;-1.73;90.26;102953.91;5092595;28;20093;-59
2024/01/08 07:34:27;;;;;;;13.93;10.67;;;;;;;-1.78;89.28;102947.69;5090836;28;20055;-59
2024/01/08 07:36:53;;;;;;;14.17;8.83;;;;;;;-1.69;90.21;102959.22;5092624;28;20035;-59
2024/01/08 07:39:19;;;;;;;12.60;8.67;;;;;;;-1.67;89.97;102965.34;5091362;28;20016;-59
2024/01/08 07:41:45;;;;;;;12.83;8.40;;;;;;;-1.62;89.85;102965.44;5091098;28;20034;-59
2024/01/08 07:44:11;;;;;;;13.67;9.00;;;;;;;-1.66;90.25;102966.22;5092713;28;20069;-59
2024/01/08 07:46:36;;;;;;;14.30;9.60;;;;;;;-1.58;90.24;102969.88;5095485;28;20020;-59
2024/01/08 07:49:03;;;;;;;14.97;9.80;;;;;;;-1.60;89.88;102982.88;5091330;28;20620;-59
2024/01/08 07:51:28;;;;;;;17.07;8.63;;;;;;;-1.71;90.34;102957.41;5086636;28;20237;-59
2024/01/08 07:53:54;;;;;;;12.23;8.80;;;;;;;-1.68;89.31;102960.09;5093367;28;20020;-59
2024/01/08 07:56:25;;;;;;;10.73;8.77;;;;;;;-1.63;89.57;102984.53;5089840;28;20472;-59
2024/01/08 07:58:51;;;;;;;11.57;8.63;;;;;;;-1.61;89.57;102972.44;5089897;28;20055;-59
2024/01/08 08:01:17;;;;;;;9.37;8.20;;;;;;;-1.56;89.87;102978.59;5091572;28;20103;-59
2024/01/08 08:03:42;;;;;;;13.20;9.30;;;;;;;-1.55;89.62;102972.56;5090884;28;20039;-59
2024/01/08 08:06:08;;;;;;;14.13;9.27;;;;;;;-1.54;88.80;102981.25;5089318;28;20024;-59
2024/01/08 08:08:34;;;;;;;12.17;8.50;;;;;;;-1.51;89.27;102982.19;5091651;28;20047;-59
2024/01/08 08:11:01;;;;;;;10.73;9.13;;;;;;;-1.52;89.20;102977.84;5091872;28;20499;-59
2024/01/08 08:13:27;;;;;;;10.03;8.33;;;;;;;-1.48;88.81;102984.88;5091428;28;20031;-59
2024/01/08 08:15:53;;;;;;;11.73;9.13;;;;;;;-1.52;88.79;102971.75;5091328;28;20592;-59
2024/01/08 08:18:20;;;;;;;12.20;8.73;;;;;;;-1.50;87.64;102986.59;5089840;28;20032;-59
2024/01/08 08:20:48;;;;;;;12.37;8.07;;;;;;;-1.47;87.40;102991.88;5091724;28;20028;-59
2024/01/08 08:23:16;;;;;;;13.03;8.13;;;;;;;-1.46;87.09;102987.53;5092639;28;20036;-59
2024/01/08 08:25:41;;;;;;;11.80;8.37;;;;;;;-1.47;86.12;102989.25;5091350;28;20020;-59
2024/01/08 08:28:07;;;;;;;11.53;8.30;;;;;;;-1.47;86.01;102984.03;5092248;28;20034;-59
2024/01/08 08:30:32;;;;;;;13.20;7.70;;;;;;;-1.48;86.57;102987.47;5092502;28;20024;-59
2024/01/08 08:32:58;;;;;;;11.57;8.70;;;;;;;-1.48;87.09;102984.88;5091173;28;20101;-59
2024/01/08 08:35:27;;;;;;;10.50;7.77;;;;;;;-1.49;86.11;102987.47;5090579;28;20032;-59
2024/01/08 08:37:56;;;;;;;12.37;8.60;;;;;;;-1.48;86.52;102986.59;5090530;28;20115;-59
2024/01/08 08:40:22;;;;;;;8.67;7.80;;;;;;;-1.52;86.54;102971.75;5091898;28;20463;-59
2024/01/08 08:42:47;;;;;;;10.03;7.40;;;;;;;-1.42;87.07;102994.56;5090754;28;20073;-59
2024/01/08 08:45:13;;;;;;;12.23;7.87;;;;;;;-1.44;87.09;102994.56;5091455;28;20031;-59
2024/01/08 08:47:39;;;;;;;11.13;8.13;;;;;;;-1.51;87.03;102984.81;5092697;28;20028;-58
2024/01/08 08:50:07;;;;;;;11.27;7.47;;;;;;;-1.45;87.23;102992.75;5093599;28;20376;-59
2024/01/08 08:52:32;;;;;;;11.93;8.13;;;;;;;-1.40;87.68;102998.09;5091284;28;20059;-58
2024/01/08 08:54:58;;;;;;;9.10;8.00;;;;;;;-1.38;87.90;102997.28;5090736;28;20101;-59
2024/01/08 08:57:23;;;;;;;10.90;8.27;;;;;;;-1.35;86.69;102992.94;5091162;28;20474;-59
2024/01/08 08:59:51;;;;;;;8.27;7.13;;;;;;;-1.41;86.96;102989.41;5091184;28;20030;-59
2024/01/08 09:02:18;;;;;;;10.07;7.37;;;;;;;-1.42;87.62;102995.44;5091452;28;20637;-59
2024/01/08 09:04:43;;;;;;;17.47;8.37;;;;;;;-1.44;88.08;102996.25;5092145;28;20533;-59
2024/01/08 09:07:09;;;;;;;9.80;7.87;;;;;;;-1.51;88.27;102986.53;5090723;28;20179;-59
2024/01/08 09:09:35;;;;;;;8.23;7.43;;;;;;;-1.49;88.73;102992.69;5090190;28;20047;-59
2024/01/08 09:12:01;;;;;;;11.17;7.87;;;;;;;-1.46;88.78;103003.19;5092405;28;20073;-59
2024/01/08 09:14:26;;;;;;;12.93;7.63;;;;;;;-1.49;89.25;103001.38;5092102;28;20035;-59
2024/01/08 09:16:51;;;;;;;9.83;8.43;;;;;;;-1.51;88.98;103013.50;5090407;28;20028;-59
2024/01/08 09:19:18;;;;;;;9.80;8.03;;;;;;;-1.58;89.34;103001.19;5092160;28;20501;-59
2024/01/08 09:21:47;;;;;;;10.20;8.27;;;;;;;-1.45;90.07;103017.97;5090840;28;20039;-59
2024/01/08 09:24:13;;;;;;;8.65;7.72;;;;;;;-1.45;89.10;103015.38;5091584;28;20039;-59
2024/01/08 09:26:42;;;;;;;9.57;7.77;;;;;;;-1.47;89.66;103020.56;5091612;28;20045;-59
2024/01/08 09:29:09;;;;;;;12.07;8.20;;;;;;;-1.51;89.28;103004.81;5091733;28;20028;-59
2024/01/08 09:31:35;;;;;;;13.10;7.70;;;;;;;-1.50;89.85;103022.22;5089947;28;20028;-59
2024/01/08 09:34:00;;;;;;;8.70;7.80;;;;;;;-1.53;90.16;103015.22;5091463;28;20059;-59
2024/01/08 09:36:25;;;;;;;9.60;8.10;;;;;;;-1.64;89.74;103001.06;5089894;28;20027;-59
2024/01/08 09:38:51;;;;;;;10.07;8.03;;;;;;;-1.53;89.05;103022.16;5090373;28;20042;-59
2024/01/08 09:41:16;;;;;;;10.50;8.33;;;;;;;-1.48;89.25;103026.63;5090489;28;20031;-59
2024/01/08 09:43:45;;;;;;;9.00;7.43;;;;;;;-1.41;89.24;103032.88;5089841;28;20031;-59
2024/01/08 09:46:17;;;;;;;9.60;8.40;;;;;;;-1.39;89.28;103025.94;5089758;28;20453;-59
2024/01/08 09:48:44;;;;;;;11.07;8.30;;;;;;;-1.42;90.91;103031.97;5091831;28;20024;-59
2024/01/08 09:51:12;;;;;;;11.00;8.17;;;;;;;-1.50;93.05;103036.16;5090544;28;20020;-59
2024/01/08 09:53:37;;;;;;;10.63;8.63;;;;;;;-1.57;94.79;103034.25;5090622;28;20476;-59
2024/01/08 09:56:04;;;;;;;11.13;8.83;;;;;;;-1.57;95.88;103034.25;5091109;28;20106;-59
2024/01/08 09:58:29;;;;;;;10.23;7.50;;;;;;;-1.55;95.67;103029.09;5091500;28;20020;-59
2024/01/08 10:00:54;;;;;;;12.63;9.33;;;;;;;-1.56;96.49;103027.28;5091514;28;20332;-59
2024/01/08 10:03:20;;;;;;;8.40;7.47;;;;;;;-1.51;96.13;103034.38;5090279;28;20024;-59
2024/01/08 10:05:46;;;;;;;13.50;8.93;;;;;;;-1.43;95.75;103037.19;5091601;28;20024;-59
2024/01/08 10:08:11;;;;;;;15.07;9.27;;;;;;;-1.42;96.29;103024.16;5091453;28;20043;-59
2024/01/08 10:10:38;;;;;;;12.07;8.37;;;;;;;-1.33;94.35;103040.84;5091222;28;20096;-59
2024/01/08 10:13:03;;;;;;;11.27;9.37;;;;;;;-1.25;94.56;103034.06;5091305;28;20031;-59
2024/01/08 10:15:29;;;;;;;10.03;8.47;;;;;;;-1.24;94.32;103028.88;5091278;28;20016;-59
2024/01/08 10:17:55;;;;;;;11.60;8.53;;;;;;;-1.28;94.02;103019.22;5091603;28;20434;-59
2024/01/08 10:20:21;;;;;;;9.90;8.67;;;;;;;-1.28;93.77;103006.19;5091439;28;20027;-59
2024/01/08 10:23:03;;;;;;;13.03;8.60;;;;;;;-1.15;92.73;103021.25;5073466;28;20032;-59
2024/01/08 10:25:28;;;;;;;9.80;8.17;;;;;;;-1.09;92.43;103020.47;5088831;28;20036;-59
2024/01/08 10:27:55;;;;;;;9.47;8.07;;;;;;;-1.10;91.40;103020.47;5086178;28;20040;-59
2024/01/08 10:30:22;;;;;;;8.97;8.07;;;;;;;-1.16;91.14;103009.03;5085552;28;20031;-59
2024/01/08 10:32:48;;;;;;;9.20;8.20;;;;;;;-0.99;90.41;103025.06;5094776;28;20024;-59
2024/01/08 10:35:14;;;;;;;10.37;7.60;;;;;;;-0.89;90.39;103025.22;5094805;28;20024;-59
2024/01/08 10:37:40;;;;;;;12.77;7.30;;;;;;;-0.82;89.64;103001.88;5095437;28;20466;-59
2024/01/08 10:40:10;;;;;;;10.97;7.80;;;;;;;-0.50;89.00;103009.41;5094092;28;20036;-59
2024/01/08 10:42:38;;;;;;;12.38;8.65;;;;;;;-0.07;86.08;103010.13;5076024;28;20029;-59
2024/01/08 10:45:03;;;;;;;8.73;7.57;;;;;;;0.43;84.84;102996.91;5093117;28;20030;-59
2024/01/08 10:47:34;;;;;;;9.13;7.60;;;;;;;0.65;82.54;103008.56;5095146;28;20016;-59
2024/01/08 10:50:05;;;;;;;8.00;7.03;;;;;;;0.50;80.44;102995.25;5094989;28;20103;-59
2024/01/08 10:52:33;;;;;;;10.10;6.83;;;;;;;0.34;80.88;103005.53;5093532;28;20039;-59
2024/01/08 10:55:00;;;;;;;8.20;7.03;;;;;;;0.16;79.11;103002.66;5093349;28;20294;-59
2024/01/08 10:57:50;;;;;;;7.93;7.10;;;;;;;0.02;80.57;103009.41;5095132;28;20024;-59
2024/01/08 11:00:17;;;;;;;8.95;6.85;;;;;;;0.31;80.35;102999.38;5094584;28;20475;-59
2024/01/08 11:02:44;;;;;;;9.03;7.47;;;;;;;0.42;78.53;102984.69;5094984;28;20028;-59
2024/01/08 11:05:10;;;;;;;9.07;7.30;;;;;;;0.74;78.79;102997.34;5094226;28;20024;-59
2024/01/08 11:07:38;;;;;;;7.53;6.57;;;;;;;0.96;77.72;102996.72;5093622;28;20089;-59
2024/01/08 11:10:05;;;;;;;9.47;6.20;;;;;;;1.08;75.78;102988.97;5093997;28;20032;-59
2024/01/08 11:12:31;;;;;;;7.00;6.07;;;;;;;0.86;73.64;102993.13;5093295;28;20548;-59
2024/01/08 11:15:03;;;;;;;7.50;6.70;;;;;;;0.56;73.53;102996.25;5094247;28;20028;-58